createdAt,value
2019-05-13T00:00:07.813Z,12.50
2019-05-13T00:02:38.032Z,12.50
2019-05-13T00:05:07.943Z,12.40
2019-05-13T00:07:38.052Z,13.00
2019-05-13T00:10:07.709Z,12.90
2019-05-13T00:12:37.669Z,13.40
2019-05-13T00:15:07.744Z,13.10
2019-05-13T00:17:37.592Z,13.00
2019-05-13T00:20:07.438Z,13.10
2019-05-13T00:22:37.428Z,12.50
2019-05-13T00:25:07.832Z,11.70
2019-05-13T00:27:38.688Z,11.20
2019-05-13T00:30:08.795Z,10.90
2019-05-13T00:32:38.608Z,10.90
2019-05-13T00:35:08.499Z,12.00
2019-05-13T00:37:38.239Z,11.10
2019-05-13T00:40:08.324Z,10.80
2019-05-13T00:42:38.012Z,10.50
2019-05-13T00:45:08.060Z,10.50
2019-05-13T00:47:37.915Z,10.60
2019-05-13T00:50:07.800Z,11.10
2019-05-13T00:52:37.485Z,10.30
2019-05-13T00:55:09.974Z,10.50
2019-05-13T00:57:39.323Z,9.90
2019-05-13T01:00:10.068Z,9.20
2019-05-13T01:02:40.049Z,9.80
2019-05-13T01:05:10.303Z,10.00
2019-05-13T01:07:40.387Z,9.70
2019-05-13T01:10:13.211Z,9.80
2019-05-13T01:12:44.053Z,9.50
2019-05-13T01:15:14.615Z,9.90
2019-05-13T01:17:44.889Z,10.20
2019-05-13T01:20:14.866Z,8.80
2019-05-13T01:22:44.689Z,9.30
2019-05-13T01:25:14.755Z,10.00
2019-05-13T01:27:44.841Z,10.20
2019-05-13T01:30:15.339Z,9.40
2019-05-13T01:32:45.377Z,9.90
2019-05-13T01:35:15.723Z,10.60
2019-05-13T01:37:46.361Z,10.50
2019-05-13T01:40:16.849Z,9.40
2019-05-13T01:42:46.544Z,9.30
2019-05-13T01:45:16.530Z,8.50
2019-05-13T01:47:46.379Z,8.70
2019-05-13T01:50:16.364Z,8.10
2019-05-13T01:52:46.469Z,9.10
2019-05-13T01:55:16.733Z,9.40
2019-05-13T01:57:46.394Z,10.00
2019-05-13T02:00:16.439Z,10.10
2019-05-13T02:02:46.095Z,10.20
2019-05-13T02:05:15.970Z,9.60
2019-05-13T02:07:56.888Z,8.80
2019-05-13T02:10:20.734Z,9.60
2019-05-13T02:12:50.552Z,10.30
2019-05-13T02:15:23.154Z,11.90
2019-05-13T02:17:53.726Z,12.10
2019-05-13T02:20:24.791Z,10.80
2019-05-13T02:22:54.806Z,11.20
2019-05-13T02:25:24.579Z,12.00
2019-05-13T02:27:54.644Z,12.60
2019-05-13T02:30:26.806Z,13.20
2019-05-13T02:32:55.912Z,13.60
2019-05-13T02:35:25.889Z,13.80
2019-05-13T02:38:14.759Z,14.00
2019-05-13T02:40:27.924Z,13.90
2019-05-13T02:42:58.035Z,13.90
2019-05-13T02:45:28.105Z,13.90
2019-05-13T02:47:57.841Z,13.30
2019-05-13T02:50:27.617Z,13.00
2019-05-13T02:52:57.309Z,13.00
2019-05-13T02:55:29.142Z,12.80
2019-05-13T02:57:59.035Z,12.20
2019-05-13T03:00:28.936Z,12.60
2019-05-13T03:03:02.908Z,11.60
2019-05-13T03:05:32.167Z,12.00
2019-05-13T03:08:03.484Z,11.70
2019-05-13T03:10:33.689Z,12.00
2019-05-13T03:13:03.892Z,11.90
2019-05-13T03:15:44.680Z,12.70
2019-05-13T03:18:14.741Z,12.60
2019-05-13T03:20:44.601Z,13.00
2019-05-13T03:23:15.505Z,13.00
2019-05-13T03:25:45.484Z,12.80
2019-05-13T03:28:15.636Z,12.50
2019-05-13T03:30:46.530Z,12.70
2019-05-13T03:33:19.303Z,12.90
2019-05-13T03:35:48.185Z,13.20
2019-05-13T03:38:17.860Z,13.10
2019-05-13T03:40:48.621Z,12.80
2019-05-13T03:43:22.908Z,12.40
2019-05-13T03:45:54.956Z,12.10
2019-05-13T03:48:24.860Z,12.70
2019-05-13T03:50:54.953Z,13.00
2019-05-13T03:53:24.902Z,13.10
2019-05-13T03:55:54.581Z,13.30
2019-05-13T03:58:24.529Z,13.40
2019-05-13T04:00:54.746Z,13.50
2019-05-13T04:03:24.523Z,13.20
2019-05-13T04:05:54.387Z,13.30
2019-05-13T04:08:24.177Z,12.40
2019-05-13T04:10:54.040Z,12.30
2019-05-13T04:13:24.221Z,11.60
2019-05-13T04:15:54.272Z,12.00
2019-05-13T04:18:24.057Z,12.20
2019-05-13T04:20:53.693Z,11.30
2019-05-13T04:23:23.651Z,11.60
2019-05-13T04:25:53.855Z,12.20
2019-05-13T04:28:23.746Z,12.30
2019-05-13T04:30:53.544Z,11.90
2019-05-13T04:33:23.371Z,10.80
2019-05-13T04:35:53.326Z,10.40
2019-05-13T04:38:23.213Z,11.60
2019-05-13T04:40:53.212Z,12.40
2019-05-13T04:43:23.781Z,12.10
2019-05-13T04:45:53.597Z,10.70
2019-05-13T04:48:23.680Z,11.40
2019-05-13T04:50:53.631Z,12.20
2019-05-13T04:53:23.619Z,12.50
2019-05-13T04:55:53.697Z,12.30
2019-05-13T04:58:23.758Z,10.30
2019-05-13T05:01:23.792Z,9.70
2019-05-13T05:04:03.409Z,10.20
2019-05-13T05:06:58.770Z,11.60
2019-05-13T05:12:58.500Z,11.10
2019-05-13T05:16:04.745Z,12.20
2019-05-13T05:19:12.517Z,11.30
2019-05-13T05:21:55.230Z,10.80
2019-05-13T05:25:07.571Z,12.40
2019-05-13T05:28:06.564Z,12.20
2019-05-13T05:31:14.978Z,13.70
2019-05-13T05:34:32.199Z,14.30
2019-05-13T05:38:01.512Z,13.50
2019-05-13T05:40:34.707Z,11.60
2019-05-13T05:43:06.923Z,10.00
2019-05-13T05:45:37.324Z,10.70
2019-05-13T05:48:08.244Z,10.90
2019-05-13T05:50:39.383Z,10.90
2019-05-13T05:53:11.115Z,10.00
2019-05-13T05:55:42.548Z,10.30
2019-05-13T05:58:14.640Z,11.10
2019-05-13T06:00:46.291Z,12.40
2019-05-13T06:03:16.591Z,12.30
2019-05-13T06:05:46.656Z,12.20
2019-05-13T06:08:17.875Z,11.30
2019-05-13T06:10:51.356Z,10.60
2019-05-13T06:13:21.295Z,10.60
2019-05-13T06:15:51.435Z,11.50
2019-05-13T06:18:22.252Z,10.70
2019-05-13T06:20:52.034Z,10.40
2019-05-13T06:23:22.294Z,11.70
2019-05-13T06:25:52.839Z,12.20
2019-05-13T06:28:22.772Z,12.60
2019-05-13T06:30:52.740Z,13.50
2019-05-13T06:33:22.495Z,13.50
2019-05-13T06:35:52.339Z,13.10
2019-05-13T06:38:22.662Z,13.30
2019-05-13T06:41:02.810Z,12.10
2019-05-13T06:43:24.180Z,12.70
2019-05-13T06:45:54.275Z,12.30
2019-05-13T06:48:24.211Z,12.60
2019-05-13T06:50:54.316Z,13.00
2019-05-13T06:53:24.653Z,12.10
2019-05-13T06:55:54.558Z,12.70
2019-05-13T06:58:24.489Z,12.50
2019-05-13T07:00:57.930Z,13.20
2019-05-13T07:03:26.160Z,13.10
2019-05-13T07:05:55.823Z,13.60
2019-05-13T07:08:25.567Z,13.20
2019-05-13T07:10:55.225Z,13.30
2019-05-13T07:13:25.199Z,13.10
2019-05-13T07:15:54.856Z,13.10
2019-05-13T07:18:24.716Z,12.70
2019-05-13T07:20:54.352Z,14.80
2019-05-13T07:23:24.249Z,13.60
2019-05-13T07:25:54.316Z,15.10
2019-05-13T07:28:24.332Z,13.90
2019-05-13T07:30:54.157Z,13.50
2019-05-13T07:33:24.804Z,14.20
2019-05-13T07:35:58.152Z,13.20
2019-05-13T07:38:27.448Z,12.50
2019-05-13T07:41:03.628Z,14.50
2019-05-13T07:43:33.304Z,14.70
2019-05-13T07:46:03.424Z,15.10
2019-05-13T07:48:33.560Z,13.70
2019-05-13T07:51:04.426Z,14.10
2019-05-13T07:53:34.588Z,14.70
2019-05-13T07:56:05.024Z,13.90
2019-05-13T07:58:37.551Z,13.90
2019-05-13T08:01:06.941Z,14.10
2019-05-13T08:03:37.229Z,14.40
2019-05-13T08:06:07.080Z,14.70
2019-05-13T08:08:36.911Z,14.50
2019-05-13T08:11:06.907Z,15.40
2019-05-13T08:13:36.763Z,14.90
2019-05-13T08:16:06.620Z,14.80
2019-05-13T08:18:36.584Z,14.50
2019-05-13T08:21:06.377Z,14.60
2019-05-13T08:23:36.207Z,13.30
2019-05-13T08:26:05.848Z,14.60
2019-05-13T08:28:35.661Z,14.60
2019-05-13T08:31:05.618Z,15.50
2019-05-13T08:33:36.024Z,14.90
2019-05-13T08:36:05.675Z,14.50
2019-05-13T08:38:35.492Z,14.10
2019-05-13T08:41:09.801Z,14.10
2019-05-13T08:43:36.746Z,14.90
2019-05-13T08:46:06.415Z,15.60
2019-05-13T08:48:36.359Z,14.70
2019-05-13T08:51:06.447Z,15.60
2019-05-13T08:53:36.871Z,15.30
2019-05-13T08:56:07.001Z,15.40
2019-05-13T08:58:37.565Z,15.10
2019-05-13T09:01:07.852Z,15.80
2019-05-13T09:03:37.708Z,14.80
2019-05-13T09:06:07.488Z,15.00
2019-05-13T09:08:37.725Z,15.10
2019-05-13T09:11:07.607Z,15.00
2019-05-13T09:13:37.411Z,15.40
2019-05-13T09:16:07.348Z,15.60
2019-05-13T09:18:37.027Z,15.40
2019-05-13T09:21:07.174Z,15.80
2019-05-13T09:23:36.791Z,15.20
2019-05-13T09:26:08.492Z,15.10
2019-05-13T09:28:38.295Z,15.70
2019-05-13T09:31:08.147Z,16.20
2019-05-13T09:33:38.571Z,16.60
2019-05-13T09:36:08.616Z,16.80
2019-05-13T09:38:38.244Z,15.60
2019-05-13T09:41:07.943Z,15.30
2019-05-13T09:43:37.831Z,15.10
2019-05-13T09:46:07.937Z,15.00
2019-05-13T09:48:38.051Z,15.90
2019-05-13T09:51:07.899Z,17.00
2019-05-13T09:53:38.090Z,17.00
2019-05-13T09:56:11.767Z,17.80
2019-05-13T09:58:41.879Z,17.30
2019-05-13T10:01:12.481Z,16.80
2019-05-13T10:03:53.735Z,16.80
2019-05-13T10:06:14.669Z,16.80
2019-05-13T10:08:44.538Z,16.30
2019-05-13T10:13:10.434Z,16.80
2019-05-13T10:15:32.760Z,16.40
2019-05-13T10:18:02.568Z,15.60
2019-05-13T10:20:52.269Z,15.90
2019-05-13T10:23:22.185Z,16.30
2019-05-13T10:25:54.473Z,16.40
2019-05-13T10:28:24.379Z,15.90
2019-05-13T10:30:54.340Z,16.70
2019-05-13T10:33:24.548Z,17.40
2019-05-13T10:35:54.746Z,16.80
2019-05-13T10:38:27.699Z,16.50
2019-05-13T10:40:56.612Z,17.30
2019-05-13T10:43:31.562Z,16.50
2019-05-13T10:48:28.817Z,17.90
2019-05-13T10:50:58.644Z,17.70
2019-05-13T10:53:28.581Z,17.70
2019-05-13T10:55:58.260Z,17.10
2019-05-13T10:58:28.177Z,17.60
2019-05-13T11:00:58.064Z,16.80
2019-05-13T11:03:27.705Z,16.50
2019-05-13T11:05:57.532Z,16.70
2019-05-13T11:08:27.428Z,17.10
2019-05-13T11:10:57.113Z,16.90
2019-05-13T11:13:45.796Z,17.70
2019-05-13T11:15:58.795Z,17.00
2019-05-13T11:18:28.489Z,16.90
2019-05-13T11:20:58.180Z,16.80
2019-05-13T11:23:27.952Z,16.20
2019-05-13T11:25:57.621Z,17.30
2019-05-13T11:28:27.639Z,17.90
2019-05-13T11:30:59.861Z,17.70
2019-05-13T11:33:31.627Z,17.50
2019-05-13T11:36:03.347Z,16.90
2019-05-13T11:38:32.578Z,17.50
2019-05-13T11:41:02.873Z,17.80
2019-05-13T11:43:33.801Z,16.90
2019-05-13T11:46:03.874Z,16.20
2019-05-13T11:48:33.501Z,16.10
2019-05-13T11:51:04.245Z,15.80
2019-05-13T11:56:05.340Z,16.70
2019-05-13T11:58:35.429Z,16.60
2019-05-13T12:01:06.133Z,16.80
2019-05-13T12:03:35.964Z,17.10
2019-05-13T12:06:05.985Z,17.10
2019-05-13T12:08:35.619Z,17.30
2019-05-13T12:11:06.248Z,16.30
2019-05-13T12:13:36.848Z,16.70
2019-05-13T12:16:06.541Z,17.70
2019-05-13T12:18:43.197Z,17.60
2019-05-13T12:21:07.605Z,17.40
2019-05-13T12:23:37.344Z,16.80
2019-05-13T12:26:06.999Z,16.60
2019-05-13T12:28:36.991Z,17.00
2019-05-13T12:31:06.666Z,17.20
2019-05-13T12:33:36.344Z,17.80
2019-05-13T12:36:05.994Z,17.60
2019-05-13T12:38:35.685Z,17.20
2019-05-13T12:41:05.824Z,16.70
2019-05-13T12:43:35.491Z,17.20
2019-05-13T12:46:05.903Z,17.40
2019-05-13T12:48:35.528Z,17.80
2019-05-13T12:51:05.843Z,18.20
2019-05-13T12:53:35.861Z,18.30
2019-05-13T12:56:06.020Z,17.80
2019-05-13T12:58:35.983Z,18.30
2019-05-13T13:01:06.073Z,17.60
2019-05-13T13:03:36.010Z,17.50
2019-05-13T13:06:25.194Z,17.60
2019-05-13T13:08:43.788Z,17.50
2019-05-13T13:11:09.103Z,17.50
2019-05-13T13:13:58.122Z,17.50
2019-05-13T13:16:12.601Z,17.30
2019-05-13T13:18:43.537Z,17.10
2019-05-13T13:21:14.382Z,17.30
2019-05-13T13:23:45.364Z,17.30
2019-05-13T13:26:16.350Z,17.30
2019-05-13T13:28:47.192Z,17.20
2019-05-13T13:31:17.169Z,17.00
2019-05-13T13:33:47.083Z,17.10
2019-05-13T13:36:17.472Z,17.40
2019-05-13T13:38:47.396Z,17.80
2019-05-13T13:41:22.590Z,18.10
2019-05-13T13:43:48.613Z,18.20
2019-05-13T13:46:33.720Z,17.60
2019-05-13T13:48:54.834Z,17.30
2019-05-13T13:51:26.659Z,17.80
2019-05-13T13:53:56.538Z,16.90
2019-05-13T13:56:25.780Z,17.40
2019-05-13T13:58:55.720Z,18.10
2019-05-13T14:01:27.222Z,17.90
2019-05-13T14:03:57.199Z,17.80
2019-05-13T14:07:00.542Z,16.20
2019-05-13T14:09:01.527Z,17.40
2019-05-13T14:11:33.107Z,17.70
2019-05-13T14:14:03.302Z,17.30
2019-05-13T14:16:35.186Z,17.70
2019-05-13T14:19:04.732Z,18.20
2019-05-13T14:21:34.562Z,18.20
2019-05-13T14:24:04.395Z,17.80
2019-05-13T14:26:34.190Z,18.10
2019-05-13T14:29:05.147Z,17.60
2019-05-13T14:31:34.926Z,17.90
2019-05-13T14:34:04.689Z,17.90
2019-05-13T14:36:34.637Z,17.90
2019-05-13T14:39:05.642Z,17.50
2019-05-13T14:41:35.522Z,18.00
2019-05-13T14:44:06.559Z,17.90
2019-05-13T14:46:47.080Z,18.30
2019-05-13T14:49:08.053Z,17.60
2019-05-13T14:51:38.149Z,17.60
2019-05-13T14:54:08.077Z,18.00
2019-05-13T14:56:37.967Z,18.20
2019-05-13T14:59:08.105Z,18.10
2019-05-13T15:01:37.884Z,17.80
2019-05-13T15:04:07.624Z,17.70
2019-05-13T15:08:12.587Z,17.60
2019-05-13T15:10:42.972Z,18.10
2019-05-13T15:13:12.977Z,18.30
2019-05-13T15:15:43.148Z,18.50
2019-05-13T15:18:13.604Z,18.00
2019-05-13T15:20:43.464Z,17.80
2019-05-13T15:23:13.111Z,18.20
2019-05-13T15:25:43.014Z,18.00
2019-05-13T15:28:12.640Z,17.80
2019-05-13T15:30:42.624Z,18.20
2019-05-13T15:33:12.259Z,17.80
2019-05-13T15:35:42.359Z,17.70
2019-05-13T15:38:12.665Z,17.70
2019-05-13T15:40:42.789Z,17.30
2019-05-13T15:43:12.455Z,17.70
2019-05-13T15:45:42.586Z,17.60
2019-05-13T15:48:13.401Z,18.10
2019-05-13T15:50:43.260Z,17.90
2019-05-13T15:53:13.024Z,17.80
2019-05-13T15:55:42.884Z,18.00
2019-05-13T15:58:12.789Z,17.80
2019-05-13T16:00:42.617Z,17.30
2019-05-13T16:03:12.551Z,17.10
2019-05-13T16:05:42.973Z,17.60
2019-05-13T16:08:14.248Z,17.20
2019-05-13T16:10:44.009Z,17.20
2019-05-13T16:13:13.787Z,17.60
2019-05-13T16:15:43.456Z,17.20
2019-05-13T16:18:13.520Z,17.40
2019-05-13T16:20:45.292Z,17.80
2019-05-13T16:23:14.880Z,17.60
2019-05-13T16:25:44.738Z,18.10
2019-05-13T16:28:14.933Z,17.60
2019-05-13T16:30:45.121Z,17.90
2019-05-13T16:33:14.991Z,17.20
2019-05-13T16:35:48.275Z,17.10
2019-05-13T16:38:18.256Z,17.20
2019-05-13T16:40:51.548Z,17.00
2019-05-13T16:43:21.895Z,17.20
2019-05-13T16:45:52.438Z,17.50
2019-05-13T16:48:22.408Z,17.60
2019-05-13T16:50:52.360Z,17.30
2019-05-13T16:53:25.823Z,17.20
2019-05-13T16:55:53.938Z,17.20
2019-05-13T16:58:24.825Z,17.10
2019-05-13T17:00:55.977Z,17.00
2019-05-13T17:03:25.828Z,17.40
2019-05-13T17:05:56.151Z,17.30
2019-05-13T17:08:26.331Z,17.20
2019-05-13T17:10:56.281Z,17.20
2019-05-13T17:13:26.153Z,17.40
2019-05-13T17:15:56.224Z,17.20
2019-05-13T17:18:26.000Z,16.80
2019-05-13T17:20:56.117Z,17.00
2019-05-13T17:23:26.068Z,16.70
2019-05-13T17:25:55.951Z,16.90
2019-05-13T17:28:25.688Z,17.20
2019-05-13T17:30:55.337Z,16.80
2019-05-13T17:33:25.043Z,16.80
2019-05-13T17:35:55.085Z,16.90
2019-05-13T17:38:24.795Z,16.90
2019-05-13T17:40:54.788Z,16.70
2019-05-13T17:43:24.489Z,16.60
2019-05-13T17:45:54.137Z,16.30
2019-05-13T17:48:29.151Z,16.20
2019-05-13T17:50:55.453Z,16.30
2019-05-13T17:53:25.128Z,16.80
2019-05-13T17:55:54.774Z,16.80
2019-05-13T17:58:24.615Z,16.30
2019-05-13T18:00:54.276Z,16.10
2019-05-13T18:03:24.383Z,15.70
2019-05-13T18:05:54.028Z,16.10
2019-05-13T18:08:23.728Z,15.70
2019-05-13T18:10:53.757Z,15.60
2019-05-13T18:13:23.620Z,15.70
2019-05-13T18:15:53.452Z,16.00
2019-05-13T18:18:23.361Z,16.50
2019-05-13T18:20:52.996Z,15.90
2019-05-13T18:23:22.878Z,15.80
2019-05-13T18:25:52.550Z,15.60
2019-05-13T18:28:30.293Z,15.50
2019-05-13T18:30:54.188Z,15.30
2019-05-13T18:33:23.919Z,15.40
2019-05-13T18:35:53.591Z,15.20
2019-05-13T18:38:23.248Z,15.40
2019-05-13T18:40:53.284Z,15.20
2019-05-13T18:43:23.000Z,15.40
2019-05-13T18:45:52.799Z,15.70
2019-05-13T18:48:22.548Z,15.50
2019-05-13T18:50:52.561Z,15.20
2019-05-13T18:53:22.271Z,15.00
2019-05-13T18:55:52.627Z,15.40
2019-05-13T18:58:22.439Z,15.30
2019-05-13T19:00:52.492Z,14.90
2019-05-13T19:03:22.135Z,15.10
2019-05-13T19:05:52.399Z,15.10
2019-05-13T19:08:22.103Z,14.90
2019-05-13T19:10:52.248Z,14.80
2019-05-13T19:13:22.460Z,14.70
2019-05-13T19:15:52.100Z,14.60
2019-05-13T19:18:21.815Z,14.70
2019-05-13T19:20:51.493Z,14.50
2019-05-13T19:23:21.532Z,14.80
2019-05-13T19:25:51.410Z,14.80
2019-05-13T19:28:22.231Z,15.10
2019-05-13T19:30:52.007Z,14.70
2019-05-13T19:33:22.241Z,14.70
2019-05-13T19:35:51.958Z,14.40
2019-05-13T19:38:22.034Z,14.40
2019-05-13T19:40:52.005Z,14.30
2019-05-13T19:43:21.870Z,14.00
2019-05-13T19:45:51.967Z,14.10
2019-05-13T19:48:21.863Z,14.30
2019-05-13T19:50:52.219Z,14.80
2019-05-13T19:53:22.006Z,14.90
2019-05-13T19:55:52.054Z,13.90
2019-05-13T19:58:21.777Z,14.00
2019-05-13T20:00:51.827Z,14.30
2019-05-13T20:03:22.581Z,14.10
2019-05-13T20:05:52.360Z,13.70
2019-05-13T20:08:22.119Z,13.90
2019-05-13T20:10:52.160Z,13.70
2019-05-13T20:13:21.903Z,13.60
2019-05-13T20:15:51.943Z,13.60
2019-05-13T20:18:22.887Z,14.30
2019-05-13T20:20:53.225Z,13.90
2019-05-13T20:23:22.951Z,14.30
2019-05-13T20:25:52.614Z,13.90
2019-05-13T20:28:22.606Z,13.90
2019-05-13T20:30:52.689Z,14.00
2019-05-13T20:33:22.725Z,14.10
2019-05-13T20:35:52.601Z,13.60
2019-05-13T20:38:22.665Z,13.70
2019-05-13T20:40:52.296Z,13.20
2019-05-13T20:43:22.571Z,13.90
2019-05-13T20:45:52.249Z,14.00
2019-05-13T20:48:22.290Z,14.10
2019-05-13T20:50:52.696Z,13.40
2019-05-13T20:53:22.431Z,13.60
2019-05-13T20:55:52.240Z,12.70
2019-05-13T20:58:23.179Z,12.40
2019-05-13T21:00:53.151Z,12.80
2019-05-13T21:03:23.230Z,12.80
2019-05-13T21:05:52.877Z,13.30
2019-05-13T21:08:22.564Z,13.30
2019-05-13T21:10:52.336Z,12.90
2019-05-13T21:13:22.031Z,12.60
2019-05-13T21:15:52.034Z,12.60
2019-05-13T21:18:22.344Z,12.50
2019-05-13T21:20:52.044Z,12.60
2019-05-13T21:23:21.921Z,12.50
2019-05-13T21:25:51.807Z,12.90
2019-05-13T21:28:22.076Z,12.10
2019-05-13T21:30:52.339Z,12.70
2019-05-13T21:33:22.268Z,12.50
2019-05-13T21:35:52.524Z,12.90
2019-05-13T21:38:22.437Z,13.00
2019-05-13T21:40:52.467Z,12.60
2019-05-13T21:43:22.123Z,12.00
2019-05-13T21:45:52.473Z,11.80
2019-05-13T21:48:22.672Z,11.80
2019-05-13T21:50:52.701Z,12.00
2019-05-13T21:53:24.529Z,12.20
2019-05-13T21:55:54.596Z,11.90
2019-05-13T21:58:24.499Z,12.20
2019-05-13T22:00:55.641Z,12.70
2019-05-13T22:03:25.743Z,11.50
2019-05-13T22:05:55.704Z,11.80
2019-05-13T22:08:26.097Z,11.20
2019-05-13T22:10:55.977Z,11.80
2019-05-13T22:13:26.340Z,12.20
2019-05-13T22:15:56.323Z,11.70
2019-05-13T22:18:26.269Z,11.60
2019-05-13T22:20:56.599Z,11.30
2019-05-13T22:23:26.589Z,11.70
2019-05-13T22:25:56.689Z,11.90
2019-05-13T22:28:26.720Z,11.60
2019-05-13T22:30:56.385Z,11.70
2019-05-13T22:33:29.546Z,11.80
2019-05-13T22:36:01.605Z,11.70
2019-05-13T22:38:32.499Z,11.70
2019-05-13T22:41:03.756Z,11.90
2019-05-13T22:43:33.880Z,12.00
2019-05-13T22:46:04.048Z,12.50
2019-05-13T22:48:35.027Z,11.20
2019-05-13T22:51:05.409Z,11.00
2019-05-13T22:53:35.548Z,12.10
2019-05-13T22:56:05.555Z,11.70
2019-05-13T22:58:36.704Z,11.40
2019-05-13T23:01:06.807Z,11.20
2019-05-13T23:03:36.565Z,11.40
2019-05-13T23:06:06.432Z,11.60
2019-05-13T23:08:36.313Z,11.20
2019-05-13T23:11:06.040Z,12.20
2019-05-13T23:13:36.016Z,11.70
2019-05-13T23:16:05.877Z,11.30
2019-05-13T23:18:35.536Z,11.10
2019-05-13T23:21:05.411Z,11.00
2019-05-13T23:23:35.044Z,11.50
2019-05-13T23:26:04.901Z,11.10
2019-05-13T23:28:34.540Z,11.00
2019-05-13T23:31:04.640Z,11.00
2019-05-13T23:33:34.608Z,12.10
2019-05-13T23:36:04.641Z,12.10
2019-05-13T23:38:34.551Z,12.80
2019-05-13T23:41:04.656Z,12.80
2019-05-13T23:43:34.580Z,13.20
2019-05-13T23:46:04.540Z,12.50
2019-05-13T23:48:34.589Z,10.90
2019-05-13T23:51:04.615Z,10.80
2019-05-13T23:53:34.452Z,10.50
2019-05-13T23:56:04.293Z,10.60
2019-05-13T23:58:34.160Z,10.60
